Flight Track Log - Related Links

Times and Time Zones

All times are in EDT time to prevent confusion due to time zone crossing. See the N33SW flight status page for this flight to view local times or setup timezone preferences in your user account.

Time Position Orientation Groundspeed Altitude Reporting Facility
EDT Latitude Longitude Course Direction KTS MPH feet Rate Location/Type
Fri 08:33:22 AM 35.0167 -89.6833 90° East 238 274 2,600  Level KMEM
Fri 08:34:19 AM 35.0500 -89.6167 59° Northeast 216 249 4,400 1,949 Climbing KMEM
Fri 08:35:19 AM 35.0667 -89.5500 73° East 209 241 6,400 1,899 Climbing KMEM
Fri 08:36:38 AM 35.1125 -89.4686 55° Northeast 229 264 8,800 1,554 Climbing Memphis Center
Fri 08:37:38 AM 35.1392 -89.4047 63° Northeast 229 264 10,000 1,400 Climbing Memphis Center
Fri 08:38:38 AM 35.1678 -89.3333 64° Northeast 229 264 11,600 1,550 Climbing Memphis Center
Fri 08:39:38 AM 35.1944 -89.2619 65° Northeast 229 264 13,100 1,500 Climbing Memphis Center
Fri 08:40:38 AM 35.2231 -89.1903 64° Northeast 229 264 14,600 1,500 Climbing Memphis Center
Fri 08:41:38 AM 35.2514 -89.1189 64° Northeast 229 264 16,100 1,300 Climbing Memphis Center
Fri 08:42:38 AM 35.2800 -89.0472 64° Northeast 224 258 17,200 950 Climbing Memphis Center
Fri 08:43:38 AM 35.3125 -88.9628 65° Northeast 241 277 18,000 900 Climbing Memphis Center
Fri 08:44:38 AM 35.3428 -88.8808 66° East 253 291 19,000 1,050 Climbing Memphis Center
Fri 08:45:38 AM 35.3772 -88.7986 63° Northeast 258 297 20,100 1,000 Climbing Memphis Center
Fri 08:46:38 AM 35.4094 -88.7164 64° Northeast 258 297 21,000 850 Climbing Memphis Center
Fri 08:47:38 AM 35.4417 -88.6292 66° East 265 305 21,800 950 Climbing Memphis Center
Fri 08:48:38 AM 35.4739 -88.5419 66° East 271 312 22,900 600 Climbing Memphis Center
Fri 08:49:38 AM 35.5078 -88.4544 65° Northeast 276 318 23,000 50 Climbing Memphis Center
Fri 08:50:38 AM 35.5481 -88.3564 63° Northeast 288 331 23,000 300 Level Memphis Center
Fri 08:51:38 AM 35.5839 -88.2586 66° East 304 350 23,600 550 Climbing Memphis Center
Fri 08:52:38 AM 35.6219 -88.1658 63° Northeast 304 350 24,100 450 Climbing Memphis Center
Fri 08:53:38 AM 35.6561 -88.0831 63° Northeast 299 344 24,500 450 Climbing Memphis Center
Fri 08:54:38 AM 35.6897 -87.9875 67° East 304 350 25,000 500 Climbing Memphis Center
Fri 08:55:38 AM 35.7275 -87.8892 65° Northeast 304 350 25,500 500 Climbing Memphis Center
Fri 08:56:38 AM 35.7631 -87.7961 65° Northeast 304 350 26,000 550 Climbing Memphis Center
Fri 08:57:38 AM 35.7986 -87.7003 65° Northeast 304 350 26,600 500 Climbing Memphis Center
Fri 08:58:38 AM 35.8381 -87.5942 65° Northeast 304 350 27,000 200 Climbing Memphis Center
Fri 08:59:38 AM 35.8753 -87.4956 65° Northeast 309 356 27,000  Level Memphis Center
Fri 09:00:38 AM 35.9125 -87.3942 66° East 309 356 27,000  Level Memphis Center
Fri 09:01:38 AM 35.9517 -87.2878 66° East 323 372 27,000  Level Memphis Center
Fri 09:02:38 AM 35.9886 -87.1836 66° East 323 372 27,000  Level Memphis Center
Fri 09:03:38 AM 36.0278 -87.0794 65° Northeast 323 372 27,000  Level Memphis Center
Fri 09:04:38 AM 36.0644 -86.9778 66° East 323 372 27,000  Level Memphis Center
Fri 09:05:38 AM 36.1014 -86.8736 66° East 323 372 27,000  Level Memphis Center
Fri 09:06:38 AM 36.1397 -86.7639 67° East 328 377 27,000  Level Memphis Center
Fri 09:07:38 AM 36.1806 -86.6567 65° Northeast 328 377 27,000  Level Memphis Center
Fri 09:08:38 AM 36.2211 -86.5494 65° Northeast 334 384 27,000  Level Memphis Center
Fri 09:09:38 AM 36.2614 -86.4419 65° Northeast 339 390 27,000  Level Memphis Center
Fri 09:10:38 AM 36.3017 -86.3319 66° East 339 390 27,000  Level Memphis Center
Fri 09:11:38 AM 36.3397 -86.2244 66° East 339 390 27,000  Level Memphis Center
Fri 09:12:44 AM 36.3792 -86.1144 66° East 348 400 27,000  Level Indianapolis Center
Fri 09:13:45 AM 36.4189 -86.0047 66° East 347 399 27,000  Level Indianapolis Center
Fri 09:14:47 AM 36.4586 -85.8936 66° East 349 402 27,000  Level Indianapolis Center
Fri 09:15:48 AM 36.4992 -85.7775 66° East 351 404 27,000  Level Indianapolis Center
Fri 09:16:49 AM 36.5403 -85.6667 65° Northeast 352 405 27,000  Level Indianapolis Center
Fri 09:17:53 AM 36.5778 -85.5556 67° East 350 403 27,000  Level Indianapolis Center
Fri 09:18:56 AM 36.6167 -85.4444 66° East 350 403 27,000  Level Indianapolis Center
Fri 09:19:57 AM 36.6633 -85.3119 66° East 347 399 27,000  Level Indianapolis Center
Fri 09:20:58 AM 36.7025 -85.2008 66° East 349 402 27,000  Level Indianapolis Center
Fri 09:22:02 AM 36.7411 -85.0889 67° East 350 403 27,000  Level Indianapolis Center
Fri 09:23:02 AM 36.7797 -84.9764 67° East 352 405 27,000  Level Indianapolis Center
Fri 09:24:07 AM 36.8178 -84.8633 67° East 353 406 27,000  Level Indianapolis Center
Fri 09:25:07 AM 36.8572 -84.7503 66° East 354 407 27,000  Level Indianapolis Center
Fri 09:26:10 AM 36.8953 -84.6364 67° East 355 409 27,000  Level Indianapolis Center
Fri 09:27:11 AM 36.9425 -84.4992 67° East 357 411 27,000  Level Indianapolis Center
Fri 09:28:14 AM 36.9783 -84.3922 67° East 359 413 27,000  Level Indianapolis Center
Fri 09:29:15 AM 37.0189 -84.2761 66° East 363 418 27,000  Level Indianapolis Center
Fri 09:30:16 AM 37.0647 -84.1389 67° East 365 420 27,000  Level Indianapolis Center
Fri 09:31:20 AM 37.1031 -84.0231 67° East 360 414 27,000  Level Indianapolis Center
Fri 09:32:20 AM 37.1431 -83.9042 67° East 367 422 27,000  Level Indianapolis Center
Fri 09:33:22 AM 37.1864 -83.7892 65° Northeast 365 420 27,000  Level Indianapolis Center
Fri 09:34:26 AM 37.2411 -83.6817 57° Northeast 363 418 27,000  Level Indianapolis Center
Fri 09:35:26 AM 37.2942 -83.5719 59° Northeast 365 420 27,000  Level Indianapolis Center
Fri 09:36:29 AM 37.3569 -83.4453 58° Northeast 366 421 27,000  Level Indianapolis Center
Fri 09:37:30 AM 37.4108 -83.3350 58° Northeast 368 423 27,000  Level Indianapolis Center
Fri 09:38:34 AM 37.4642 -83.2239 59° Northeast 369 425 27,000  Level Indianapolis Center
Fri 09:39:36 AM 37.5186 -83.1122 58° Northeast 371 427 27,000  Level Indianapolis Center
Fri 09:40:36 AM 37.5722 -82.9992 59° Northeast 374 430 27,000  Level Indianapolis Center
Fri 09:41:40 AM 37.6275 -82.8864 58° Northeast 376 433 27,000  Level Indianapolis Center
Fri 09:42:41 AM 37.6911 -82.7544 59° Northeast 376 433 27,000  Level Indianapolis Center
Fri 09:43:45 AM 37.7450 -82.6403 59° Northeast 378 435 27,000  Level Indianapolis Center
Fri 09:44:47 AM 37.7997 -82.5264 59° Northeast 380 437 27,000  Level Indianapolis Center
Fri 09:45:47 AM 37.8531 -82.4150 59° Northeast 372 428 27,000  Level Indianapolis Center
Fri 09:46:48 AM 37.9064 -82.3017 59° Northeast 371 427 27,000  Level Indianapolis Center
Fri 09:47:52 AM 37.9619 -82.1869 58° Northeast 378 435 27,000  Level Indianapolis Center
Fri 09:48:55 AM 38.0231 -82.0558 59° Northeast 380 437 27,000  Level Indianapolis Center
Fri 09:49:56 AM 38.0783 -81.9381 59° Northeast 389 448 27,000  Level Indianapolis Center
Fri 09:50:58 AM 38.1344 -81.8181 59° Northeast 395 455 27,000  Level Indianapolis Center
Fri 09:52:01 AM 38.1900 -81.6975 60° Northeast 398 458 27,000  Level Indianapolis Center
Fri 09:53:02 AM 38.2453 -81.5778 60° Northeast 396 456 27,000  Level Indianapolis Center
Fri 09:54:06 AM 38.3122 -81.4339 59° Northeast 398 458 27,000  Level Indianapolis Center
Fri 09:55:06 AM 38.3681 -81.3142 59° Northeast 396 456 27,000  Level Indianapolis Center
Fri 09:56:07 AM 38.4233 -81.1925 60° Northeast 399 459 27,000  Level Indianapolis Center
Fri 09:57:11 AM 38.4769 -81.0736 60° Northeast 392 451 27,000  Level Indianapolis Center
Fri 09:58:12 AM 38.5306 -80.9539 60° Northeast 390 449 27,000  Level Indianapolis Center
Fri 09:59:16 AM 38.5844 -80.8358 60° Northeast 387 445 27,000  Level Indianapolis Center
Fri 10:00:16 AM 38.6489 -80.6922 60° Northeast 389 448 27,000  Level Indianapolis Center
Fri 10:01:20 AM 38.7031 -80.5708 60° Northeast 392 451 27,000  Level Indianapolis Center
Fri 10:02:20 AM 38.7583 -80.4469 60° Northeast 400 460 27,000  Level Indianapolis Center
Fri 10:03:24 AM 38.8147 -80.3225 60° Northeast 402 463 27,000  Level Indianapolis Center
Fri 10:04:24 AM 38.8683 -80.1997 61° Northeast 398 458 27,000  Level Indianapolis Center
Fri 10:05:27 AM 38.9250 -80.0600 62° Northeast 394 453 27,000  Level Indianapolis Center
Fri 10:06:29 AM 38.9597 -79.9342 70° East 387 445 27,000  Level Indianapolis Center
Fri 10:07:30 AM 39.0033 -79.7839 69° East 385 443 27,000  Level Indianapolis Center
Fri 10:08:25 AM 39.0353 -79.6911 66° East 384 442 27,000  Level Washington Center
Fri 10:09:25 AM 39.0731 -79.5594 70° East 384 442 27,000  Level Washington Center
Fri 10:10:22 AM 39.1086 -79.4331 70° East 384 442 27,000  Level Washington Center
Fri 10:11:23 AM 39.1436 -79.3064 70° East 384 442 27,000 -1,082 Level Washington Center
Fri 10:12:24 AM 39.1772 -79.1608 73° East 384 442 24,800 -2,200 Descending Washington Center
Fri 10:13:23 AM 39.2144 -79.0314 70° East 379 436 22,600 -2,319 Descending Washington Center
Fri 10:14:23 AM 39.2367 -78.9039 77° East 369 425 20,200 -2,380 Descending Washington Center
Fri 10:15:24 AM 39.2547 -78.7814 79° East 369 425 17,800 -2,410 Descending Washington Center
Fri 10:16:25 AM 39.2700 -78.6694 80° East 346 398 15,300 -1,934 Descending Washington Center
Fri 10:17:25 AM 39.2853 -78.5628 79° East 321 369 13,900 -1,210 Descending Washington Center
Fri 10:18:24 AM 39.3003 -78.4614 79° East 304 350 12,900 -1,008 Descending Washington Center
Fri 10:19:24 AM 39.3131 -78.3600 81° East 293 337 11,900 -744 Descending Washington Center
Fri 10:20:25 AM 39.3278 -78.2667 78° East 274 315 11,400 -555 Descending Washington Center
Fri 10:21:23 AM 39.3400 -78.1839 79° East 254 292 10,800 -706 Descending Washington Center
Fri 10:22:24 AM 39.3500 -78.0956 82° East 247 284 10,000 -942 Descending Washington Center
Fri 10:23:24 AM 39.3622 -78.0103 79° East 242 278 8,900 -1,091 Descending Washington Center
Fri 10:24:25 AM 39.3722 -77.9219 82° East 237 273 7,800 -1,033 Descending Washington Center
Fri 10:26:24 AM 39.3964 -77.7508 80° East 236 272 5,800 -867 Descending Washington Center
Fri 10:27:25 AM 39.4083 -77.6625 80° East 241 277 5,200 -231 Descending Washington Center
Fri 10:29:52 AM 39.4333 -77.4667 81° East 236 272 5,000 -58 Descending Potomac TRACON
Fri 10:30:52 AM 39.4500 -77.3833 75° East 229 264 5,000 -50 Level Potomac TRACON
Fri 10:31:52 AM 39.4500 -77.3000 90° East 226 260 4,900 -50 Descending Potomac TRACON
Fri 10:32:52 AM 39.4667 -77.2167 75° East 222 255 4,900  Level Potomac TRACON
Fri 10:33:53 AM 39.4667 -77.1333 90° East 216 249 4,900  Level Potomac TRACON
Fri 10:34:53 AM 39.4833 -77.0667 72° East 220 253 4,900  Level Potomac TRACON
Fri 10:35:53 AM 39.4833 -76.9833 90° East 223 257 4,900  Level Potomac TRACON
Fri 10:36:53 AM 39.4833 -76.9000 90° East 224 258 4,900 -350 Level Potomac TRACON
Fri 10:37:53 AM 39.4833 -76.8167 90° East 239 275 4,200 -450 Descending Potomac TRACON
Fri 10:38:53 AM 39.4667 -76.7333 104° East 237 273 4,000 -99 Descending Potomac TRACON
Fri 10:39:54 AM 39.4333 -76.6500 117° Southeast 238 274 4,000 -189 Level Potomac TRACON
Fri 10:41:00 AM 39.4000 -76.5833 123° Southeast 257 296 3,600 -524 Descending Potomac TRACON
Fri 10:42:00 AM 39.3333 -76.5333 150° Southeast 240 276 2,900 -347 Descending Potomac TRACON
Fri 10:43:01 AM 39.2833 -76.4833 142° Southeast 229 264 2,900 -166 Level Potomac TRACON
Fri 10:45:01 AM 39.1833 -76.4000 147° Southeast 203 234 2,400 -166 Descending Potomac TRACON
Fri 10:46:02 AM 39.1667 -76.3333 108° East 181 208 2,400  Level Potomac TRACON
Fri 10:47:02 AM 39.1833 -76.2833 67° East 180 207 2,400 -150 Level Potomac TRACON
Fri 10:48:02 AM 39.2333 -76.3000 346° North 211 243 2,100 -300 Descending Potomac TRACON
Fri 10:50:00 AM 39.3167 -76.4000 North  Level FlightAware Approximate
Fri 10:57:00 AM 39.3257 -76.4138 North  Level Estimated
Fri 10:58:00 AM 39.3257 -76.4138 North  Level Estimated
Fri 10:59:00 AM 39.3257 -76.4138 North  Level Estimated

Login

Don't have an account? Register now (free) for customized features, flight alerts, and more!